Langston, OK (73050)

3:36 PM CDT on September 04, 2015 (GMT -0500)
Near Antelope Creek | | Change Station
CLOSE
Current Station
Personal Weather Station
Location: Guthrie, OK
Elevation: 1109 ft
Nearby Weather Stations

Elev 1109 ft 35.91 °N, 97.35 °W | Updated 25 seconds ago

Clear
Clear
96.7 °F
Feels Like 103 °F
N
0.0
Wind Variable Wind from South
Gusts 8.0 mph

Today
High -- | Low -- °F
--% Chance of Precip.
Yesterday
High -- | Low -- °F
Precip. -- in
7:02 AM 7:52 PM
Waning Gibbous, 56% visible
Pressure 29.89 in
Visibility 10.0 miles
Clouds Few 6000 ft
Few 7500 ft
Heat Index 103 °F
Dew Point 69 °F
Humidity 41%
Rainfall 0.00 in
Snow Depth Not available.
UV 8 out of 12
Pollen 10.40 out of 12
Air Quality Not available.
Flu Activity Not available.
METAR KGOK 041953Z AUTO 16008KT 10SM FEW060 FEW075 35/18 A2993 RMK AO2 SLP122 T03500183
Pressure 29.89 in
Visibility 10.0 miles
Clouds Few 6000 ft
Few 7500 ft
Heat Index 103 °F
Dew Point 69 °F
Humidity 41%
Rainfall 0.00 in
Snow Depth Not available.
UV 8 out of 12
Pollen 10.40 out of 12
Air Quality Not available.
Flu Activity Not available.
METAR KGOK 041953Z AUTO 16008KT 10SM FEW060 FEW075 35/18 A2993 RMK AO2 SLP122 T03500183

10-Day Weather Forecast

×

Almanac

Astronomy

Sep. 04, 2015 Rise Set
Actual Time
Civil Twilight
Nautical Twilight
Astronomical Twilight
Moon
Length of Visible Light
Length of Day
Tomorrow will be .
, % of the Moon is Illuminated

Today's Extremes

State Highs State Lows

Community

WunderPhotos

Upload Photos

1,852,283 photos uploaded!

WunderBlogs® & News

Nearby

Air Quality

  Air Quality AQ Index Pollutant
Not available.

Snow Depth

Station Depth Elevation

Earthquake Activity

City Distance Mag. Time & Date
Minimum magnitude displayed is 2.5.

Coastal Water Temperatures

Place Temperature

Stations

Nearby Weather Stations

Station Location Temp. Windchill Dew Point Humidity Wind Precip. Elev Updated Type